Time,TemperatureF,DewpointF,PressureIn,WindDirection,WindDirectionDegrees,WindSpeedMPH,WindSpeedGustMPH,Humidity,HourlyPrecipIn,Conditions,Clouds,dailyrainin,SoftwareType,DateUTC
2013-06-20 00:11:00,68.9,68.6,30.01,NNW,337,0.0,-999.0,99,-99.99,,,0.00,Acu-Link.com,2013-06-20 04:11:00,
2013-06-20 00:26:00,68.5,68.2,30.01,NNW,337,0.0,-999.0,99,-99.99,,,0.00,Acu-Link.com,2013-06-20 04:26:00,
2013-06-20 00:41:00,68.4,68.1,30.01,West,270,0.0,-999.0,99,-99.99,,,0.00,Acu-Link.com,2013-06-20 04:41:00,
2013-06-20 00:56:00,68.0,67.4,30.00,West,270,0.0,-999.0,98,-99.99,,,0.00,Acu-Link.com,2013-06-20 04:56:00,
2013-06-20 01:12:00,67.5,67.2,30.00,NNW,337,0.0,-999.0,99,-99.99,,,0.00,Acu-Link.com,2013-06-20 05:12:00,
2013-06-20 01:27:00,67.5,67.2,30.00,ENE,67,0.0,-999.0,99,-99.99,,,0.00,Acu-Link.com,2013-06-20 05:27:00,
2013-06-20 01:42:00,67.3,67.0,30.00,SW,225,0.0,-999.0,99,-99.99,,,0.00,Acu-Link.com,2013-06-20 05:42:00,
2013-06-20 01:58:00,67.1,66.8,30.00,North,0,0.0,-999.0,99,-99.99,,,0.00,Acu-Link.com,2013-06-20 05:58:00,
2013-06-20 02:13:00,66.9,66.6,30.01,NNW,337,0.0,-999.0,99,-99.99,,,0.00,Acu-Link.com,2013-06-20 06:13:00,
2013-06-20 02:28:00,66.9,66.6,30.00,ENE,67,0.0,-999.0,99,-99.99,,,0.00,Acu-Link.com,2013-06-20 06:28:00,
2013-06-20 02:43:00,66.7,66.4,30.01,SSW,202,0.0,-999.0,99,-99.99,,,0.00,Acu-Link.com,2013-06-20 06:43:00,
2013-06-20 02:58:00,66.6,66.3,30.00,East,90,0.0,-999.0,99,-99.99,,,0.00,Acu-Link.com,2013-06-20 06:58:00,
2013-06-20 03:14:00,66.4,66.1,30.01,SW,225,0.0,-999.0,99,-99.99,,,0.00,Acu-Link.com,2013-06-20 07:14:00,
2013-06-20 03:29:00,66.2,65.9,30.01,SSW,202,0.0,-999.0,99,-99.99,,,0.00,Acu-Link.com,2013-06-20 07:29:00,
2013-06-20 03:45:00,65.8,65.5,30.00,WSW,247,0.0,-999.0,99,-99.99,,,0.00,Acu-Link.com,2013-06-20 07:45:00,
2013-06-20 04:00:00,65.7,65.4,30.00,NNW,337,0.0,-999.0,99,-99.99,,,0.00,Acu-Link.com,2013-06-20 08:00:00,
2013-06-20 04:16:00,65.5,65.2,30.01,NNW,337,0.0,-999.0,99,-99.99,,,0.00,Acu-Link.com,2013-06-20 08:16:00,
2013-06-20 04:31:00,65.1,64.8,30.01,NNW,337,0.0,-999.0,99,-99.99,,,0.00,Acu-Link.com,2013-06-20 08:31:00,
2013-06-20 04:46:00,65.1,64.8,30.01,East,90,0.0,-999.0,99,-99.99,,,0.00,Acu-Link.com,2013-06-20 08:46:00,
2013-06-20 05:01:00,64.9,64.6,30.02,East,90,0.0,-999.0,99,-99.99,,,0.00,Acu-Link.com,2013-06-20 09:01:00,
2013-06-20 05:16:00,64.8,64.5,30.02,NE,45,0.0,-999.0,99,-99.99,,,0.00,Acu-Link.com,2013-06-20 09:16:00,
2013-06-20 05:32:00,64.8,64.5,30.03,NNW,337,0.0,-999.0,99,-99.99,,,0.00,Acu-Link.com,2013-06-20 09:32:00,
2013-06-20 05:47:00,64.8,64.5,30.04,NE,45,0.0,-999.0,99,-99.99,,,0.00,Acu-Link.com,2013-06-20 09:47:00,
2013-06-20 06:03:00,64.6,64.3,30.04,WNW,292,0.0,-999.0,99,-99.99,,,0.00,Acu-Link.com,2013-06-20 10:03:00,
2013-06-20 06:18:00,64.6,64.3,30.04,NNW,337,0.0,-999.0,99,-99.99,,,0.00,Acu-Link.com,2013-06-20 10:18:00,
2013-06-20 06:33:00,64.6,64.3,30.05,WSW,247,0.0,-999.0,99,-99.99,,,0.00,Acu-Link.com,2013-06-20 10:33:00,
2013-06-20 06:49:00,64.6,64.3,30.06,WNW,292,0.0,-999.0,99,-99.99,,,0.00,Acu-Link.com,2013-06-20 10:49:00,
2013-06-20 07:04:00,64.6,64.3,30.06,NW,315,0.0,-999.0,99,-99.99,,,0.00,Acu-Link.com,2013-06-20 11:04:00,
2013-06-20 07:19:00,64.9,64.6,30.07,SSW,202,0.0,-999.0,99,-99.99,,,0.00,Acu-Link.com,2013-06-20 11:19:00,
2013-06-20 07:34:00,65.5,65.2,30.07,NNW,337,0.0,-999.0,99,-99.99,,,0.00,Acu-Link.com,2013-06-20 11:34:00,
2013-06-20 07:49:00,66.4,66.1,30.07,NNE,22,0.0,-999.0,99,-99.99,,,0.00,Acu-Link.com,2013-06-20 11:49:00,
2013-06-20 08:04:00,67.5,67.2,30.08,West,270,0.0,-999.0,99,-99.99,,,0.00,Acu-Link.com,2013-06-20 12:04:00,
2013-06-20 08:20:00,69.8,68.9,30.09,NNE,22,0.0,-999.0,97,-99.99,,,0.00,Acu-Link.com,2013-06-20 12:20:00,
2013-06-20 08:35:00,72.9,69.8,30.09,SE,135,0.0,-999.0,90,-99.99,,,0.00,Acu-Link.com,2013-06-20 12:35:00,
2013-06-20 08:50:00,74.1,70.0,30.10,ESE,112,0.0,-999.0,87,-99.99,,,0.00,Acu-Link.com,2013-06-20 12:50:00,
2013-06-20 09:05:00,73.9,69.8,30.09,North,0,1.7,-999.0,87,-99.99,,,0.00,Acu-Link.com,2013-06-20 13:05:00,
2013-06-20 09:20:00,73.6,69.5,30.10,NE,45,0.0,-999.0,87,-99.99,,,0.00,Acu-Link.com,2013-06-20 13:20:00,
2013-06-20 09:36:00,73.4,68.9,30.09,NNE,22,0.0,-999.0,86,-99.99,,,0.00,Acu-Link.com,2013-06-20 13:36:00,
2013-06-20 09:51:00,74.5,70.4,30.10,SSW,202,0.0,-999.0,87,-99.99,,,0.00,Acu-Link.com,2013-06-20 13:51:00,
2013-06-20 10:06:00,74.8,68.9,30.10,ESE,112,1.7,-999.0,82,-99.99,,,0.00,Acu-Link.com,2013-06-20 14:06:00,
2013-06-20 10:21:00,75.6,69.3,30.10,NNE,22,2.2,-999.0,81,-99.99,,,0.00,Acu-Link.com,2013-06-20 14:21:00,
2013-06-20 10:37:00,76.1,69.8,30.09,North,0,0.0,-999.0,81,-99.99,,,0.00,Acu-Link.com,2013-06-20 14:37:00,
2013-06-20 10:52:00,76.8,69.8,30.10,East,90,4.2,-999.0,79,-99.99,,,0.00,Acu-Link.com,2013-06-20 14:52:00,
2013-06-20 11:07:00,77.2,70.2,30.10,NE,45,3.7,-999.0,79,-99.99,,,0.00,Acu-Link.com,2013-06-20 15:07:00,
2013-06-20 11:22:00,77.2,68.6,30.09,South,180,1.7,-999.0,75,-99.99,,,0.00,Acu-Link.com,2013-06-20 15:22:00,
2013-06-20 11:38:00,78.1,68.7,30.10,ESE,112,3.7,-999.0,73,-99.99,,,0.00,Acu-Link.com,2013-06-20 15:38:00,
2013-06-20 11:53:00,78.1,69.9,30.10,SE,135,1.7,-999.0,76,-99.99,,,0.00,Acu-Link.com,2013-06-20 15:53:00,
2013-06-20 12:08:00,78.4,69.0,30.11,SE,135,0.0,-999.0,73,-99.99,,,0.00,Acu-Link.com,2013-06-20 16:08:00,
2013-06-20 12:24:00,78.8,69.4,30.11,SSE,157,0.0,-999.0,73,-99.99,,,0.00,Acu-Link.com,2013-06-20 16:24:00,
2013-06-20 12:39:00,77.7,67.9,30.11,ESE,112,2.2,-999.0,72,-99.99,,,0.00,Acu-Link.com,2013-06-20 16:39:00,
2013-06-20 12:54:00,80.2,68.7,30.10,SE,135,0.0,-999.0,68,-99.99,,,0.00,Acu-Link.com,2013-06-20 16:54:00,
2013-06-20 13:09:00,80.6,68.2,30.09,SE,135,0.0,-999.0,66,-99.99,,,0.00,Acu-Link.com,2013-06-20 17:09:00,
2013-06-20 13:24:00,80.6,67.7,30.09,South,180,2.2,-999.0,65,-99.99,,,0.00,Acu-Link.com,2013-06-20 17:24:00,
2013-06-20 13:40:00,80.6,67.7,30.09,ESE,112,2.2,-999.0,65,-99.99,,,0.00,Acu-Link.com,2013-06-20 17:40:00,
2013-06-20 13:55:00,81.7,70.1,30.08,SW,225,2.2,-999.0,68,-99.99,,,0.00,Acu-Link.com,2013-06-20 17:55:00,
2013-06-20 14:10:00,82.8,68.9,30.08,WNW,292,2.7,-999.0,63,-99.99,,,0.00,Acu-Link.com,2013-06-20 18:10:00,
2013-06-20 14:26:00,83.3,69.4,30.07,SE,135,2.7,-999.0,63,-99.99,,,0.00,Acu-Link.com,2013-06-20 18:26:00,
2013-06-20 14:41:00,83.3,67.4,30.07,NE,45,2.2,-999.0,59,-99.99,,,0.00,Acu-Link.com,2013-06-20 18:41:00,
2013-06-20 14:56:00,84.0,68.6,30.08,ESE,112,0.0,-999.0,60,-99.99,,,0.00,Acu-Link.com,2013-06-20 18:56:00,
2013-06-20 15:11:00,82.9,66.6,30.07,NE,45,2.7,-999.0,58,-99.99,,,0.00,Acu-Link.com,2013-06-20 19:11:00,
2013-06-20 15:27:00,84.4,69.0,30.07,ENE,67,2.7,-999.0,60,-99.99,,,0.00,Acu-Link.com,2013-06-20 19:27:00,
2013-06-20 15:42:00,85.1,68.6,30.06,West,270,0.0,-999.0,58,-99.99,,,0.00,Acu-Link.com,2013-06-20 19:42:00,
2013-06-20 15:57:00,84.9,67.9,30.05,WNW,292,2.7,-999.0,57,-99.99,,,0.00,Acu-Link.com,2013-06-20 19:57:00,
2013-06-20 16:13:00,82.4,67.6,30.05,NW,315,2.7,-999.0,61,-99.99,,,0.00,Acu-Link.com,2013-06-20 20:13:00,
2013-06-20 16:29:00,82.8,69.4,30.05,SSW,202,0.0,-999.0,64,-99.99,,,0.00,Acu-Link.com,2013-06-20 20:29:00,
2013-06-20 16:44:00,81.7,66.9,30.05,SW,225,0.0,-999.0,61,-99.99,,,0.00,Acu-Link.com,2013-06-20 20:44:00,
2013-06-20 16:59:00,81.5,69.9,30.05,SSW,202,1.7,-999.0,68,-99.99,,,0.00,Acu-Link.com,2013-06-20 20:59:00,
2013-06-20 17:14:00,81.5,68.6,30.05,SSE,157,0.0,-999.0,65,-99.99,,,0.00,Acu-Link.com,2013-06-20 21:14:00,
2013-06-20 17:30:00,81.1,68.2,30.04,SSE,157,1.7,-999.0,65,-99.99,,,0.00,Acu-Link.com,2013-06-20 21:30:00,
2013-06-20 17:45:00,81.1,65.9,30.03,South,180,0.0,-999.0,60,-99.99,,,0.00,Acu-Link.com,2013-06-20 21:45:00,
2013-06-20 18:00:00,80.8,67.0,30.03,SW,225,2.2,-999.0,63,-99.99,,,0.00,Acu-Link.com,2013-06-20 22:00:00,
2013-06-20 18:15:00,79.9,65.7,30.04,South,180,0.0,-999.0,62,-99.99,,,0.00,Acu-Link.com,2013-06-20 22:15:00,
2013-06-20 18:31:00,79.5,65.8,30.04,SSW,202,0.0,-999.0,63,-99.99,,,0.00,Acu-Link.com,2013-06-20 22:31:00,
2013-06-20 18:46:00,79.2,66.0,30.04,NNW,337,0.0,-999.0,64,-99.99,,,0.00,Acu-Link.com,2013-06-20 22:46:00,
2013-06-20 19:01:00,79.0,66.2,30.04,WNW,292,0.0,-999.0,65,-99.99,,,0.00,Acu-Link.com,2013-06-20 23:01:00,
2013-06-20 19:16:00,78.6,65.8,30.04,West,270,0.0,-999.0,65,-99.99,,,0.00,Acu-Link.com,2013-06-20 23:16:00,
2013-06-20 19:32:00,78.3,66.0,30.05,SSW,202,0.0,-999.0,66,-99.99,,,0.00,Acu-Link.com,2013-06-20 23:32:00,
2013-06-20 19:47:00,77.7,65.9,30.05,SSW,202,0.0,-999.0,67,-99.99,,,0.00,Acu-Link.com,2013-06-20 23:47:00,
2013-06-20 20:03:00,77.0,66.0,30.05,SSW,202,0.0,-999.0,69,-99.99,,,0.00,Acu-Link.com,2013-06-21 00:03:00,
2013-06-20 20:18:00,76.1,66.4,30.05,SSW,202,0.0,-999.0,72,-99.99,,,0.00,Acu-Link.com,2013-06-21 00:18:00,
2013-06-20 20:33:00,75.4,66.9,30.06,WSW,247,0.0,-999.0,75,-99.99,,,0.00,Acu-Link.com,2013-06-21 00:33:00,
2013-06-20 20:49:00,74.3,66.2,30.06,SW,225,0.0,-999.0,76,-99.99,,,0.00,Acu-Link.com,2013-06-21 00:49:00,
2013-06-20 21:04:00,73.2,65.9,30.07,SW,225,0.0,-999.0,78,-99.99,,,0.00,Acu-Link.com,2013-06-21 01:04:00,
2013-06-20 21:19:00,72.5,66.3,30.08,SW,225,0.0,-999.0,81,-99.99,,,0.00,Acu-Link.com,2013-06-21 01:19:00,
2013-06-20 21:35:00,72.1,66.3,30.08,West,270,0.0,-999.0,82,-99.99,,,0.00,Acu-Link.com,2013-06-21 01:35:00,
2013-06-20 21:50:00,71.6,66.8,30.09,WNW,292,0.0,-999.0,85,-99.99,,,0.00,Acu-Link.com,2013-06-21 01:50:00,
2013-06-20 22:05:00,71.1,67.0,30.09,SW,225,0.0,-999.0,87,-99.99,,,0.00,Acu-Link.com,2013-06-21 02:05:00,
2013-06-20 22:20:00,70.3,66.6,30.10,SW,225,0.0,-999.0,88,-99.99,,,0.00,Acu-Link.com,2013-06-21 02:20:00,
2013-06-20 22:36:00,69.8,66.7,30.11,SW,225,0.0,-999.0,90,-99.99,,,0.00,Acu-Link.com,2013-06-21 02:36:00,
2013-06-20 22:51:00,69.4,66.3,30.11,SW,225,0.0,-999.0,90,-99.99,,,0.00,Acu-Link.com,2013-06-21 02:51:00,
2013-06-20 23:06:00,68.9,66.8,30.11,NNW,337,0.0,-999.0,93,-99.99,,,0.00,Acu-Link.com,2013-06-21 03:06:00,
2013-06-20 23:21:00,68.9,66.8,30.12,WSW,247,0.0,-999.0,93,-99.99,,,0.00,Acu-Link.com,2013-06-21 03:21:00,
2013-06-20 23:37:00,68.5,66.7,30.12,NW,315,0.0,-999.0,94,-99.99,,,0.00,Acu-Link.com,2013-06-21 03:37:00,
2013-06-20 23:52:00,68.2,66.7,30.13,NNW,337,0.0,-999.0,95,-99.99,,,0.00,Acu-Link.com,2013-06-21 03:52:00,